sensor_id;sensor_type;location;lat;lon;timestamp;pressure;altitude;pressure_sealevel;temperature;humidity
75414;BME280;64758;52.122;5.404;2023-11-19T00:02:26;100946.56;;;13.09;100.00
75414;BME280;64758;52.122;5.404;2023-11-19T00:04:53;100951.06;;;13.09;100.00
75414;BME280;64758;52.122;5.404;2023-11-19T00:07:20;100967.91;;;13.09;100.00
75414;BME280;64758;52.122;5.404;2023-11-19T00:09:47;100960.94;;;13.08;100.00
75414;BME280;64758;52.122;5.404;2023-11-19T00:12:14;100953.09;;;13.07;100.00
75414;BME280;64758;52.122;5.404;2023-11-19T00:14:41;100943.28;;;13.07;100.00
75414;BME280;64758;52.122;5.404;2023-11-19T00:17:07;100943.06;;;13.09;100.00
75414;BME280;64758;52.122;5.404;2023-11-19T00:19:34;100945.94;;;13.07;100.00
75414;BME280;64758;52.122;5.404;2023-11-19T00:22:01;100950.44;;;13.07;100.00
75414;BME280;64758;52.122;5.404;2023-11-19T00:24:30;100946.97;;;13.06;100.00
75414;BME280;64758;52.122;5.404;2023-11-19T00:26:57;100957.63;;;13.06;100.00
75414;BME280;64758;52.122;5.404;2023-11-19T00:29:23;100939.59;;;13.08;100.00
75414;BME280;64758;52.122;5.404;2023-11-19T00:31:51;100937.31;;;13.05;100.00
75414;BME280;64758;52.122;5.404;2023-11-19T00:34:18;100938.13;;;13.06;100.00
75414;BME280;64758;52.122;5.404;2023-11-19T00:36:48;100936.28;;;13.06;100.00
75414;BME280;64758;52.122;5.404;2023-11-19T00:39:15;100938.34;;;13.04;100.00
75414;BME280;64758;52.122;5.404;2023-11-19T00:41:42;100938.34;;;13.04;100.00
75414;BME280;64758;52.122;5.404;2023-11-19T00:44:09;100933.00;;;13.04;100.00
75414;BME280;64758;52.122;5.404;2023-11-19T00:46:35;100938.13;;;13.06;100.00
75414;BME280;64758;52.122;5.404;2023-11-19T00:49:03;100932.78;;;13.06;100.00
75414;BME280;64758;52.122;5.404;2023-11-19T00:51:30;100925.63;;;13.06;100.00
75414;BME280;64758;52.122;5.404;2023-11-19T00:53:58;100921.09;;;13.07;100.00
75414;BME280;64758;52.122;5.404;2023-11-19T00:56:25;100912.47;;;13.05;100.00
75414;BME280;64758;52.122;5.404;2023-11-19T00:58:52;100920.28;;;13.06;100.00
75414;BME280;64758;52.122;5.404;2023-11-19T01:01:18;100920.47;;;13.05;100.00
75414;BME280;64758;52.122;5.404;2023-11-19T01:03:45;100921.72;;;13.02;100.00
75414;BME280;64758;52.122;5.404;2023-11-19T01:06:12;100929.72;;;13.02;100.00
75414;BME280;64758;52.122;5.404;2023-11-19T01:08:42;100918.03;;;13.03;100.00
75414;BME280;64758;52.122;5.404;2023-11-19T01:11:19;100920.69;;;13.03;100.00
75414;BME280;64758;52.122;5.404;2023-11-19T01:13:47;100924.59;;;13.07;100.00
75414;BME280;64758;52.122;5.404;2023-11-19T01:16:14;100925.63;;;13.06;100.00
75414;BME280;64758;52.122;5.404;2023-11-19T01:18:41;100912.91;;;13.08;100.00
75414;BME280;64758;52.122;5.404;2023-11-19T01:21:08;100910.03;;;13.10;100.00
75414;BME280;64758;52.122;5.404;2023-11-19T01:23:35;100901.00;;;13.11;100.00
75414;BME280;64758;52.122;5.404;2023-11-19T01:26:02;100894.03;;;13.10;100.00
75414;BME280;64758;52.122;5.404;2023-11-19T01:28:28;100903.91;;;13.09;100.00
75414;BME280;64758;52.122;5.404;2023-11-19T01:30:56;100892.59;;;13.07;100.00
75414;BME280;64758;52.122;5.404;2023-11-19T01:33:23;100885.63;;;13.06;100.00
75414;BME280;64758;52.122;5.404;2023-11-19T01:35:50;100892.78;;;13.06;100.00
75414;BME280;64758;52.122;5.404;2023-11-19T01:38:16;100910.44;;;13.07;100.00
75414;BME280;64758;52.122;5.404;2023-11-19T01:40:43;100895.06;;;13.09;100.00
75414;BME280;64758;52.122;5.404;2023-11-19T01:43:10;100898.34;;;13.11;100.00
75414;BME280;64758;52.122;5.404;2023-11-19T01:45:38;100897.31;;;13.12;100.00
75414;BME280;64758;52.122;5.404;2023-11-19T01:48:06;100907.81;;;13.13;100.00
75414;BME280;64758;52.122;5.404;2023-11-19T01:50:33;100902.47;;;13.13;100.00
75414;BME280;64758;52.122;5.404;2023-11-19T01:53:00;100899.59;;;13.08;100.00
75414;BME280;64758;52.122;5.404;2023-11-19T01:55:27;100905.53;;;13.10;100.00
75414;BME280;64758;52.122;5.404;2023-11-19T01:57:59;100892.19;;;13.10;100.00
75414;BME280;64758;52.122;5.404;2023-11-19T02:00:26;100903.06;;;13.09;100.00
75414;BME280;64758;52.122;5.404;2023-11-19T02:02:52;100895.91;;;13.09;100.00
75414;BME280;64758;52.122;5.404;2023-11-19T02:05:21;100902.44;;;13.07;100.00
75414;BME280;64758;52.122;5.404;2023-11-19T02:07:48;100893.63;;;13.06;100.00
75414;BME280;64758;52.122;5.404;2023-11-19T02:10:16;100898.53;;;13.03;100.00
75414;BME280;64758;52.122;5.404;2023-11-19T02:12:45;100885.81;;;12.98;100.00
75414;BME280;64758;52.122;5.404;2023-11-19T02:15:12;100882.09;;;12.93;100.00
75414;BME280;64758;52.122;5.404;2023-11-19T02:17:39;100886.13;;;12.89;100.00
75414;BME280;64758;52.122;5.404;2023-11-19T02:20:06;100894.75;;;12.84;100.00
75414;BME280;64758;52.122;5.404;2023-11-19T02:22:35;100907.44;;;12.82;100.00
75414;BME280;64758;52.122;5.404;2023-11-19T02:25:07;100907.00;;;12.79;100.00
75414;BME280;64758;52.122;5.404;2023-11-19T02:27:53;100904.75;;;12.76;100.00
75414;BME280;64758;52.122;5.404;2023-11-19T02:30:23;100911.69;;;12.70;100.00
75414;BME280;64758;52.122;5.404;2023-11-19T02:32:57;100918.44;;;12.67;100.00
75414;BME280;64758;52.122;5.404;2023-11-19T02:35:25;100921.91;;;12.61;100.00
75414;BME280;64758;52.122;5.404;2023-11-19T02:37:53;100919.63;;;12.58;100.00
75414;BME280;64758;52.122;5.404;2023-11-19T02:40:20;100922.06;;;12.53;100.00
75414;BME280;64758;52.122;5.404;2023-11-19T02:42:49;100915.31;;;12.50;100.00
75414;BME280;64758;52.122;5.404;2023-11-19T02:45:15;100915.06;;;12.45;100.00
75414;BME280;64758;52.122;5.404;2023-11-19T02:47:43;100909.91;;;12.44;100.00
75414;BME280;64758;52.122;5.404;2023-11-19T02:50:11;100902.94;;;12.43;100.00
75414;BME280;64758;52.122;5.404;2023-11-19T02:52:42;100903.16;;;12.41;100.00
75414;BME280;64758;52.122;5.404;2023-11-19T02:55:10;100896.56;;;12.37;100.00
75414;BME280;64758;52.122;5.404;2023-11-19T02:57:39;100902.72;;;12.38;100.00
75414;BME280;64758;52.122;5.404;2023-11-19T03:00:20;100913.56;;;12.36;100.00
75414;BME280;64758;52.122;5.404;2023-11-19T03:02:51;100901.66;;;12.32;100.00
75414;BME280;64758;52.122;5.404;2023-11-19T03:05:36;100903.47;;;12.25;100.00
75414;BME280;64758;52.122;5.404;2023-11-19T03:08:03;100902.38;;;12.20;100.00
75414;BME280;64758;52.122;5.404;2023-11-19T03:10:29;100897.66;;;12.15;100.00
75414;BME280;64758;52.122;5.404;2023-11-19T03:12:56;100893.34;;;12.14;100.00
75414;BME280;64758;52.122;5.404;2023-11-19T03:15:23;100906.22;;;12.11;100.00
75414;BME280;64758;52.122;5.404;2023-11-19T03:17:50;100916.44;;;12.07;100.00
75414;BME280;64758;52.122;5.404;2023-11-19T03:20:16;100914.56;;;12.01;100.00
75414;BME280;64758;52.122;5.404;2023-11-19T03:22:43;100904.47;;;11.97;100.00
75414;BME280;64758;52.122;5.404;2023-11-19T03:25:13;100909.78;;;11.97;100.00
75414;BME280;64758;52.122;5.404;2023-11-19T03:27:40;100911.59;;;11.90;100.00
75414;BME280;64758;52.122;5.404;2023-11-19T03:30:09;100909.53;;;11.85;100.00
75414;BME280;64758;52.122;5.404;2023-11-19T03:32:36;100903.94;;;11.80;100.00
75414;BME280;64758;52.122;5.404;2023-11-19T03:35:03;100899.81;;;11.78;100.00
75414;BME280;64758;52.122;5.404;2023-11-19T03:37:31;100896.91;;;11.73;100.00
75414;BME280;64758;52.122;5.404;2023-11-19T03:39:58;100898.75;;;11.72;100.00
75414;BME280;64758;52.122;5.404;2023-11-19T03:42:29;100888.50;;;11.69;100.00
75414;BME280;64758;52.122;5.404;2023-11-19T03:44:59;100883.56;;;11.66;100.00
75414;BME280;64758;52.122;5.404;2023-11-19T03:47:26;100875.97;;;11.63;100.00
75414;BME280;64758;52.122;5.404;2023-11-19T03:49:52;100897.81;;;11.59;100.00
75414;BME280;64758;52.122;5.404;2023-11-19T03:52:19;100904.13;;;11.58;100.00
75414;BME280;64758;52.122;5.404;2023-11-19T03:54:46;100900.03;;;11.55;100.00
75414;BME280;64758;52.122;5.404;2023-11-19T03:57:13;100907.75;;;11.50;100.00
75414;BME280;64758;52.122;5.404;2023-11-19T03:59:41;100906.25;;;11.48;100.00
75414;BME280;64758;52.122;5.404;2023-11-19T04:02:07;100903.19;;;11.44;100.00
75414;BME280;64758;52.122;5.404;2023-11-19T04:04:34;100908.50;;;11.44;100.00
75414;BME280;64758;52.122;5.404;2023-11-19T04:07:01;100920.34;;;11.42;100.00
75414;BME280;64758;52.122;5.404;2023-11-19T04:09:29;100908.63;;;11.37;100.00
75414;BME280;64758;52.122;5.404;2023-11-19T04:11:57;100922.94;;;11.36;100.00
75414;BME280;64758;52.122;5.404;2023-11-19T04:14:23;100926.59;;;11.35;100.00
75414;BME280;64758;52.122;5.404;2023-11-19T04:16:50;100923.13;;;11.34;100.00
75414;BME280;64758;52.122;5.404;2023-11-19T04:19:18;100928.44;;;11.34;100.00
75414;BME280;64758;52.122;5.404;2023-11-19T04:21:45;100920.47;;;11.34;100.00
75414;BME280;64758;52.122;5.404;2023-11-19T04:24:12;100928.44;;;11.34;100.00
75414;BME280;64758;52.122;5.404;2023-11-19T04:26:41;100934.78;;;11.33;100.00
75414;BME280;64758;52.122;5.404;2023-11-19T04:29:09;100941.13;;;11.32;100.00
75414;BME280;64758;52.122;5.404;2023-11-19T04:31:37;100928.63;;;11.33;100.00
75414;BME280;64758;52.122;5.404;2023-11-19T04:34:04;100919.22;;;11.30;100.00
75414;BME280;64758;52.122;5.404;2023-11-19T04:36:30;100919.59;;;11.27;100.00
75414;BME280;64758;52.122;5.404;2023-11-19T04:38:57;100916.09;;;11.27;100.00
75414;BME280;64758;52.122;5.404;2023-11-19T04:41:24;100912.78;;;11.25;100.00
75414;BME280;64758;52.122;5.404;2023-11-19T04:43:50;100923.63;;;11.23;100.00
75414;BME280;64758;52.122;5.404;2023-11-19T04:46:17;100929.13;;;11.22;100.00
75414;BME280;64758;52.122;5.404;2023-11-19T04:48:43;100932.16;;;11.19;100.00
75414;BME280;64758;52.122;5.404;2023-11-19T04:51:10;100933.38;;;11.16;100.00
75414;BME280;64758;52.122;5.404;2023-11-19T04:53:36;100922.25;;;11.13;100.00
75414;BME280;64758;52.122;5.404;2023-11-19T04:56:12;100920.81;;;11.10;100.00
75414;BME280;64758;52.122;5.404;2023-11-19T04:58:39;100911.84;;;11.11;100.00
75414;BME280;64758;52.122;5.404;2023-11-19T05:01:13;100920.63;;;11.12;100.00
75414;BME280;64758;52.122;5.404;2023-11-19T05:03:40;100919.19;;;11.09;100.00
75414;BME280;64758;52.122;5.404;2023-11-19T05:06:08;100918.53;;;11.07;100.00
75414;BME280;64758;52.122;5.404;2023-11-19T05:08:35;100923.22;;;11.05;100.00
75414;BME280;64758;52.122;5.404;2023-11-19T05:11:02;100924.41;;;11.03;100.00
75414;BME280;64758;52.122;5.404;2023-11-19T05:13:29;100940.97;;;11.05;100.00
75414;BME280;64758;52.122;5.404;2023-11-19T05:15:56;100935.50;;;11.06;100.00
75414;BME280;64758;52.122;5.404;2023-11-19T05:18:22;100943.47;;;11.06;100.00
75414;BME280;64758;52.122;5.404;2023-11-19T05:20:49;100938.78;;;11.08;100.00
75414;BME280;64758;52.122;5.404;2023-11-19T05:23:16;100929.34;;;11.06;100.00
75414;BME280;64758;52.122;5.404;2023-11-19T05:25:45;100929.53;;;11.04;100.00
75414;BME280;64758;52.122;5.404;2023-11-19T05:28:12;100917.44;;;11.02;100.00
75414;BME280;64758;52.122;5.404;2023-11-19T05:30:40;100919.47;;;11.00;100.00
75414;BME280;64758;52.122;5.404;2023-11-19T05:33:07;100918.00;;;10.97;100.00
75414;BME280;64758;52.122;5.404;2023-11-19T05:35:34;100928.00;;;10.95;100.00
75414;BME280;64758;52.122;5.404;2023-11-19T05:38:01;100938.00;;;10.93;100.00
75414;BME280;64758;52.122;5.404;2023-11-19T05:40:29;100927.09;;;10.88;100.00
75414;BME280;64758;52.122;5.404;2023-11-19T05:42:55;100927.75;;;10.90;100.00
75414;BME280;64758;52.122;5.404;2023-11-19T05:45:22;100927.09;;;10.88;100.00
75414;BME280;64758;52.122;5.404;2023-11-19T05:47:49;100921.31;;;10.85;100.00
75414;BME280;64758;52.122;5.404;2023-11-19T05:50:16;100934.44;;;10.86;100.00
75414;BME280;64758;52.122;5.404;2023-11-19T05:52:42;100931.13;;;10.84;100.00
75414;BME280;64758;52.122;5.404;2023-11-19T05:55:09;100933.31;;;10.81;100.00
75414;BME280;64758;52.122;5.404;2023-11-19T05:57:37;100931.69;;;10.80;100.00
75414;BME280;64758;52.122;5.404;2023-11-19T06:00:12;100945.44;;;10.83;100.00
75414;BME280;64758;52.122;5.404;2023-11-19T06:02:39;100919.88;;;10.82;100.00
75414;BME280;64758;52.122;5.404;2023-11-19T06:05:06;100929.50;;;10.83;100.00
75414;BME280;64758;52.122;5.404;2023-11-19T06:07:33;100921.31;;;10.85;100.00
75414;BME280;64758;52.122;5.404;2023-11-19T06:10:00;100927.47;;;10.85;100.00
75414;BME280;64758;52.122;5.404;2023-11-19T06:12:26;100924.97;;;10.84;100.00
75414;BME280;64758;52.122;5.404;2023-11-19T06:14:54;100921.53;;;10.83;100.00
75414;BME280;64758;52.122;5.404;2023-11-19T06:17:20;100921.88;;;10.80;100.00
75414;BME280;64758;52.122;5.404;2023-11-19T06:19:47;100919.41;;;10.79;100.00
75414;BME280;64758;52.122;5.404;2023-11-19T06:22:13;100925.09;;;10.76;100.00
75414;BME280;64758;52.122;5.404;2023-11-19T06:24:40;100925.09;;;10.76;100.00
75414;BME280;64758;52.122;5.404;2023-11-19T06:27:07;100937.56;;;10.75;100.00
75414;BME280;64758;52.122;5.404;2023-11-19T06:29:33;100936.72;;;10.75;100.00
75414;BME280;64758;52.122;5.404;2023-11-19T06:32:00;100942.88;;;10.75;100.00
75414;BME280;64758;52.122;5.404;2023-11-19T06:34:41;100952.66;;;10.75;100.00
75414;BME280;64758;52.122;5.404;2023-11-19T06:37:08;100950.19;;;10.73;100.00
75414;BME280;64758;52.122;5.404;2023-11-19T06:39:35;100949.38;;;10.73;100.00
75414;BME280;64758;52.122;5.404;2023-11-19T06:42:02;100944.25;;;10.71;100.00
75414;BME280;64758;52.122;5.404;2023-11-19T06:44:29;100948.09;;;10.69;100.00
75414;BME280;64758;52.122;5.404;2023-11-19T06:46:55;100956.91;;;10.69;100.00
75414;BME280;64758;52.122;5.404;2023-11-19T06:54:43;100967.03;;;10.66;100.00
75414;BME280;64758;52.122;5.404;2023-11-19T06:57:09;100959.06;;;10.66;100.00
75414;BME280;64758;52.122;5.404;2023-11-19T06:59:36;100963.59;;;10.65;100.00
75414;BME280;64758;52.122;5.404;2023-11-19T07:02:02;100964.22;;;10.67;100.00
75414;BME280;64758;52.122;5.404;2023-11-19T07:04:29;100971.34;;;10.67;100.00
75414;BME280;64758;52.122;5.404;2023-11-19T07:06:56;100969.16;;;10.70;100.00
75414;BME280;64758;52.122;5.404;2023-11-19T07:09:23;100976.31;;;10.70;100.00
75414;BME280;64758;52.122;5.404;2023-11-19T07:11:49;100969.81;;;10.72;100.00
75414;BME280;64758;52.122;5.404;2023-11-19T07:14:18;100975.13;;;10.72;100.00
75414;BME280;64758;52.122;5.404;2023-11-19T07:16:45;100980.44;;;10.72;100.00
75414;BME280;64758;52.122;5.404;2023-11-19T07:19:16;100977.78;;;10.72;100.00
75414;BME280;64758;52.122;5.404;2023-11-19T07:21:43;100987.41;;;10.73;100.00
75414;BME280;64758;52.122;5.404;2023-11-19T07:24:12;100991.72;;;10.74;100.00
75414;BME280;64758;52.122;5.404;2023-11-19T07:26:43;100989.84;;;10.75;100.00
75414;BME280;64758;52.122;5.404;2023-11-19T07:29:10;100990.69;;;10.75;100.00
75414;BME280;64758;52.122;5.404;2023-11-19T07:31:38;100999.31;;;10.77;100.00
75414;BME280;64758;52.122;5.404;2023-11-19T07:34:04;100978.88;;;10.78;100.00
75414;BME280;64758;52.122;5.404;2023-11-19T07:36:32;100998.31;;;10.78;100.00
75414;BME280;64758;52.122;5.404;2023-11-19T07:38:59;100988.69;;;10.77;100.00
75414;BME280;64758;52.122;5.404;2023-11-19T07:41:26;101004.63;;;10.77;100.00
75414;BME280;64758;52.122;5.404;2023-11-19T07:43:52;100992.34;;;10.76;100.00
75414;BME280;64758;52.122;5.404;2023-11-19T07:46:19;101000.31;;;10.76;100.00
75414;BME280;64758;52.122;5.404;2023-11-19T07:48:46;101000.97;;;10.78;100.00
75414;BME280;64758;52.122;5.404;2023-11-19T07:51:15;101003.41;;;10.80;100.00
75414;BME280;64758;52.122;5.404;2023-11-19T07:53:42;100992.63;;;10.81;100.00
75414;BME280;64758;52.122;5.404;2023-11-19T07:56:09;100995.72;;;10.85;100.00
75414;BME280;64758;52.122;5.404;2023-11-19T07:58:36;100992.69;;;10.88;100.00
75414;BME280;64758;52.122;5.404;2023-11-19T08:01:03;100987.22;;;10.89;100.00
75414;BME280;64758;52.122;5.404;2023-11-19T08:03:30;100993.34;;;10.90;100.00
75414;BME280;64758;52.122;5.404;2023-11-19T08:05:56;100978.22;;;10.90;100.00
75414;BME280;64758;52.122;5.404;2023-11-19T08:08:23;100984.81;;;10.94;100.00
75414;BME280;64758;52.122;5.404;2023-11-19T08:10:50;100993.59;;;10.95;100.00
75414;BME280;64758;52.122;5.404;2023-11-19T08:13:18;100989.78;;;10.97;100.00
75414;BME280;64758;52.122;5.404;2023-11-19T08:15:47;100994.88;;;10.99;100.00
75414;BME280;64758;52.122;5.404;2023-11-19T08:18:13;100993.06;;;10.99;100.00
75414;BME280;64758;52.122;5.404;2023-11-19T08:20:40;101001.31;;;11.04;100.00
75414;BME280;64758;52.122;5.404;2023-11-19T08:23:07;100994.78;;;11.07;100.00
75414;BME280;64758;52.122;5.404;2023-11-19T08:25:34;100997.28;;;11.08;100.00
75414;BME280;64758;52.122;5.404;2023-11-19T08:28:01;100994.41;;;11.10;100.00
75414;BME280;64758;52.122;5.404;2023-11-19T08:30:30;100993.59;;;11.09;100.00
75414;BME280;64758;52.122;5.404;2023-11-19T08:32:56;101002.84;;;11.13;100.00
75414;BME280;64758;52.122;5.404;2023-11-19T08:35:25;100987.19;;;11.18;100.00
75414;BME280;64758;52.122;5.404;2023-11-19T08:37:51;100992.94;;;11.22;100.00
75414;BME280;64758;52.122;5.404;2023-11-19T08:40:19;100995.41;;;11.23;100.00
75414;BME280;64758;52.122;5.404;2023-11-19T08:42:46;100990.75;;;11.25;100.00
75414;BME280;64758;52.122;5.404;2023-11-19T08:45:12;101001.63;;;11.30;100.00
75414;BME280;64758;52.122;5.404;2023-11-19T08:47:39;101005.56;;;11.34;100.00
75414;BME280;64758;52.122;5.404;2023-11-19T08:50:07;101016.66;;;11.38;100.00
75414;BME280;64758;52.122;5.404;2023-11-19T08:52:34;101009.78;;;11.43;100.00
75414;BME280;64758;52.122;5.404;2023-11-19T08:55:01;101008.56;;;11.45;100.00
75414;BME280;64758;52.122;5.404;2023-11-19T08:57:28;101010.84;;;11.48;100.00
75414;BME280;64758;52.122;5.404;2023-11-19T08:59:54;101001.28;;;11.54;100.00
75414;BME280;64758;52.122;5.404;2023-11-19T09:02:21;101018.00;;;11.62;100.00
75414;BME280;64758;52.122;5.404;2023-11-19T09:04:48;101007.88;;;11.72;100.00
75414;BME280;64758;52.122;5.404;2023-11-19T09:07:17;101005.25;;;11.79;100.00
75414;BME280;64758;52.122;5.404;2023-11-19T09:09:43;101003.69;;;11.84;100.00
75414;BME280;64758;52.122;5.404;2023-11-19T09:12:10;101003.31;;;11.87;100.00
75414;BME280;64758;52.122;5.404;2023-11-19T09:14:38;101015.41;;;11.90;100.00
75414;BME280;64758;52.122;5.404;2023-11-19T09:17:05;101012.34;;;11.93;100.00
75414;BME280;64758;52.122;5.404;2023-11-19T09:19:32;101010.53;;;11.93;100.00
75414;BME280;64758;52.122;5.404;2023-11-19T09:21:59;101008.69;;;11.94;100.00
75414;BME280;64758;52.122;5.404;2023-11-19T09:24:25;101001.53;;;11.94;100.00
75414;BME280;64758;52.122;5.404;2023-11-19T09:26:52;101009.31;;;11.96;100.00
75414;BME280;64758;52.122;5.404;2023-11-19T09:29:18;101011.78;;;11.97;100.00
75414;BME280;64758;52.122;5.404;2023-11-19T09:31:46;100998.66;;;11.96;100.00
75414;BME280;64758;52.122;5.404;2023-11-19T09:34:12;101005.88;;;12.02;100.00
75414;BME280;64758;52.122;5.404;2023-11-19T09:36:39;101007.75;;;12.01;100.00
75414;BME280;64758;52.122;5.404;2023-11-19T09:39:13;101007.34;;;12.04;100.00
75414;BME280;64758;52.122;5.404;2023-11-19T09:41:44;101004.94;;;12.09;100.00
75414;BME280;64758;52.122;5.404;2023-11-19T09:44:11;101007.00;;;12.14;100.00
75414;BME280;64758;52.122;5.404;2023-11-19T09:46:40;101013.19;;;12.14;100.00
75414;BME280;64758;52.122;5.404;2023-11-19T09:49:08;101008.91;;;12.20;100.00
75414;BME280;64758;52.122;5.404;2023-11-19T09:51:38;101007.91;;;12.21;100.00
75414;BME280;64758;52.122;5.404;2023-11-19T09:54:05;101002.19;;;12.24;100.00
75414;BME280;64758;52.122;5.404;2023-11-19T09:56:33;100996.84;;;12.24;100.00
75414;BME280;64758;52.122;5.404;2023-11-19T09:58:59;101003.03;;;12.24;100.00
75414;BME280;64758;52.122;5.404;2023-11-19T10:01:26;100991.53;;;12.24;100.00
75414;BME280;64758;52.122;5.404;2023-11-19T10:03:55;100993.00;;;12.26;100.00
75414;BME280;64758;52.122;5.404;2023-11-19T10:06:22;100994.69;;;12.34;100.00
75414;BME280;64758;52.122;5.404;2023-11-19T10:08:51;100991.47;;;12.38;100.00
75414;BME280;64758;52.122;5.404;2023-11-19T10:11:17;100986.78;;;12.47;100.00
75414;BME280;64758;52.122;5.404;2023-11-19T10:13:44;100970.47;;;12.56;100.00
75414;BME280;64758;52.122;5.404;2023-11-19T10:16:15;100982.00;;;12.63;100.00
75414;BME280;64758;52.122;5.404;2023-11-19T10:18:49;100979.81;;;12.73;100.00
75414;BME280;64758;52.122;5.404;2023-11-19T10:21:17;100971.81;;;12.79;100.00
75414;BME280;64758;52.122;5.404;2023-11-19T10:23:55;100955.84;;;12.86;100.00
75414;BME280;64758;52.122;5.404;2023-11-19T10:26:23;100962.75;;;13.01;100.00
75414;BME280;64758;52.122;5.404;2023-11-19T10:28:50;100956.16;;;13.04;100.00
75414;BME280;64758;52.122;5.404;2023-11-19T10:31:18;100960.31;;;13.13;100.00
75414;BME280;64758;52.122;5.404;2023-11-19T10:33:45;100957.47;;;13.21;100.00
75414;BME280;64758;52.122;5.404;2023-11-19T10:36:12;100970.00;;;13.27;100.00
75414;BME280;64758;52.122;5.404;2023-11-19T10:38:40;100958.53;;;13.26;100.00
75414;BME280;64758;52.122;5.404;2023-11-19T10:41:07;100960.19;;;13.27;100.00
75414;BME280;64758;52.122;5.404;2023-11-19T10:43:43;100962.00;;;13.27;100.00
75414;BME280;64758;52.122;5.404;2023-11-19T10:46:14;100954.63;;;13.22;100.00
75414;BME280;64758;52.122;5.404;2023-11-19T10:48:41;100955.84;;;13.26;100.00
75414;BME280;64758;52.122;5.404;2023-11-19T10:51:08;100949.09;;;13.30;100.00
75414;BME280;64758;52.122;5.404;2023-11-19T10:53:38;100960.84;;;13.42;100.00
75414;BME280;64758;52.122;5.404;2023-11-19T10:56:09;100954.69;;;13.55;99.80
75414;BME280;64758;52.122;5.404;2023-11-19T10:58:37;100963.75;;;13.60;100.00
75414;BME280;64758;52.122;5.404;2023-11-19T11:01:13;100950.41;;;13.60;98.79
75414;BME280;64758;52.122;5.404;2023-11-19T11:03:43;100958.59;;;13.59;98.20
75414;BME280;64758;52.122;5.404;2023-11-19T11:06:13;100956.56;;;13.54;97.90
75414;BME280;64758;52.122;5.404;2023-11-19T11:08:40;100948.94;;;13.51;97.86
75414;BME280;64758;52.122;5.404;2023-11-19T11:11:07;100964.97;;;13.51;98.09
75414;BME280;64758;52.122;5.404;2023-11-19T11:13:36;100963.13;;;13.58;98.48
75414;BME280;64758;52.122;5.404;2023-11-19T11:16:04;100967.22;;;13.54;97.68
75414;BME280;64758;52.122;5.404;2023-11-19T11:18:34;100964.34;;;13.56;98.37
75414;BME280;64758;52.122;5.404;2023-11-19T11:21:04;100964.78;;;13.59;97.44
75414;BME280;64758;52.122;5.404;2023-11-19T11:23:53;100961.06;;;13.67;97.79
75414;BME280;64758;52.122;5.404;2023-11-19T11:37:06;100942.19;;;13.62;97.45
75414;BME280;64758;52.122;5.404;2023-11-19T11:39:36;100938.69;;;13.55;96.92
75414;BME280;64758;52.122;5.404;2023-11-19T11:44:59;100947.50;;;13.42;99.11
75414;BME280;64758;52.122;5.404;2023-11-19T11:50:11;100942.13;;;13.36;98.41
75414;BME280;64758;52.122;5.404;2023-11-19T11:55:51;100942.56;;;13.39;99.31
75414;BME280;64758;52.122;5.404;2023-11-19T11:58:25;100951.19;;;13.41;98.33
75414;BME280;64758;52.122;5.404;2023-11-19T12:00:52;100939.69;;;13.41;98.29
75414;BME280;64758;52.122;5.404;2023-11-19T12:03:21;100941.31;;;13.42;98.54
75414;BME280;64758;52.122;5.404;2023-11-19T12:05:50;100949.13;;;13.43;97.95
75414;BME280;64758;52.122;5.404;2023-11-19T12:08:25;100938.88;;;13.40;98.53
75414;BME280;64758;52.122;5.404;2023-11-19T12:10:57;100926.94;;;13.36;98.51
75414;BME280;64758;52.122;5.404;2023-11-19T12:13:53;100938.84;;;13.27;98.49
75414;BME280;64758;52.122;5.404;2023-11-19T12:16:21;100926.50;;;13.26;98.22
75414;BME280;64758;52.122;5.404;2023-11-19T12:18:48;100922.00;;;13.27;98.15
75414;BME280;64758;52.122;5.404;2023-11-19T12:21:29;100914.59;;;13.29;99.17
75414;BME280;64758;52.122;5.404;2023-11-19T12:23:58;100923.03;;;13.32;99.56
75414;BME280;64758;52.122;5.404;2023-11-19T12:26:36;100926.91;;;13.30;99.22
75414;BME280;64758;52.122;5.404;2023-11-19T12:29:03;100920.78;;;13.29;98.60
75414;BME280;64758;52.122;5.404;2023-11-19T12:31:34;100918.50;;;13.33;98.67
75414;BME280;64758;52.122;5.404;2023-11-19T12:34:05;100923.63;;;13.28;98.52
75414;BME280;64758;52.122;5.404;2023-11-19T12:36:32;100935.31;;;13.27;99.85
75414;BME280;64758;52.122;5.404;2023-11-19T12:38:59;100929.38;;;13.25;99.25
75414;BME280;64758;52.122;5.404;2023-11-19T12:41:26;100923.63;;;13.21;99.26
75414;BME280;64758;52.122;5.404;2023-11-19T12:43:53;100935.09;;;13.22;99.88
75414;BME280;64758;52.122;5.404;2023-11-19T12:46:23;100925.91;;;13.24;99.18
75414;BME280;64758;52.122;5.404;2023-11-19T12:48:51;100923.63;;;13.28;99.85
75414;BME280;64758;52.122;5.404;2023-11-19T12:51:18;100933.50;;;13.27;99.08
75414;BME280;64758;52.122;5.404;2023-11-19T12:53:53;100930.00;;;13.27;98.83
75414;BME280;64758;52.122;5.404;2023-11-19T12:56:24;100932.66;;;13.27;99.29
75414;BME280;64758;52.122;5.404;2023-11-19T12:58:51;100918.09;;;13.29;98.66
75414;BME280;64758;52.122;5.404;2023-11-19T13:01:19;100926.72;;;13.31;98.59
75414;BME280;64758;52.122;5.404;2023-11-19T13:03:47;100931.66;;;13.34;98.49
75414;BME280;64758;52.122;5.404;2023-11-19T13:06:15;100928.56;;;13.31;98.53
75414;BME280;64758;52.122;5.404;2023-11-19T13:08:47;100919.75;;;13.30;98.72
75414;BME280;64758;52.122;5.404;2023-11-19T13:11:34;100918.50;;;13.26;99.38